sensor_id;sensor_type;location;lat;lon;timestamp;P1;durP1;ratioP1;P2;durP2;ratioP2
2187;SDS011;1100;52.014;8.540;2024-03-08T00:00:05;4.00;;;1.75;;
2187;SDS011;1100;52.014;8.540;2024-03-08T00:02:35;4.97;;;1.83;;
2187;SDS011;1100;52.014;8.540;2024-03-08T00:05:02;6.70;;;2.30;;
2187;SDS011;1100;52.014;8.540;2024-03-08T00:07:29;4.77;;;1.87;;
2187;SDS011;1100;52.014;8.540;2024-03-08T00:09:54;5.45;;;2.28;;
2187;SDS011;1100;52.014;8.540;2024-03-08T00:12:19;3.97;;;1.70;;
2187;SDS011;1100;52.014;8.540;2024-03-08T00:14:45;6.50;;;2.50;;
2187;SDS011;1100;52.014;8.540;2024-03-08T00:17:10;6.23;;;2.47;;
2187;SDS011;1100;52.014;8.540;2024-03-08T00:19:36;4.53;;;1.38;;
2187;SDS011;1100;52.014;8.540;2024-03-08T00:22:01;5.47;;;2.40;;
2187;SDS011;1100;52.014;8.540;2024-03-08T00:24:27;4.47;;;2.30;;
2187;SDS011;1100;52.014;8.540;2024-03-08T00:26:54;5.50;;;2.33;;
2187;SDS011;1100;52.014;8.540;2024-03-08T00:29:20;5.57;;;2.03;;
2187;SDS011;1100;52.014;8.540;2024-03-08T00:31:45;3.87;;;1.57;;
2187;SDS011;1100;52.014;8.540;2024-03-08T00:34:10;4.23;;;2.40;;
2187;SDS011;1100;52.014;8.540;2024-03-08T00:36:36;6.60;;;3.45;;
2187;SDS011;1100;52.014;8.540;2024-03-08T00:39:02;6.10;;;2.60;;
2187;SDS011;1100;52.014;8.540;2024-03-08T00:41:31;7.57;;;2.93;;
2187;SDS011;1100;52.014;8.540;2024-03-08T00:43:56;4.35;;;1.85;;
2187;SDS011;1100;52.014;8.540;2024-03-08T00:46:22;7.00;;;2.70;;
2187;SDS011;1100;52.014;8.540;2024-03-08T00:48:47;2.80;;;1.40;;
2187;SDS011;1100;52.014;8.540;2024-03-08T00:51:13;5.60;;;2.10;;
2187;SDS011;1100;52.014;8.540;2024-03-08T00:53:40;8.67;;;2.83;;
2187;SDS011;1100;52.014;8.540;2024-03-08T00:56:06;6.80;;;2.40;;
2187;SDS011;1100;52.014;8.540;2024-03-08T00:58:35;4.82;;;2.33;;
2187;SDS011;1100;52.014;8.540;2024-03-08T01:01:01;3.35;;;1.55;;
2187;SDS011;1100;52.014;8.540;2024-03-08T01:03:26;5.10;;;2.13;;
2187;SDS011;1100;52.014;8.540;2024-03-08T01:05:52;5.40;;;2.83;;
2187;SDS011;1100;52.014;8.540;2024-03-08T01:08:17;8.43;;;2.17;;
2187;SDS011;1100;52.014;8.540;2024-03-08T01:10:42;4.90;;;1.90;;
2187;SDS011;1100;52.014;8.540;2024-03-08T01:13:07;7.07;;;3.03;;
2187;SDS011;1100;52.014;8.540;2024-03-08T01:15:34;7.10;;;2.15;;
2187;SDS011;1100;52.014;8.540;2024-03-08T01:17:59;4.30;;;2.27;;
2187;SDS011;1100;52.014;8.540;2024-03-08T01:20:25;4.13;;;1.30;;
2187;SDS011;1100;52.014;8.540;2024-03-08T01:22:51;3.83;;;1.47;;
2187;SDS011;1100;52.014;8.540;2024-03-08T01:25:17;8.48;;;2.20;;
2187;SDS011;1100;52.014;8.540;2024-03-08T01:27:42;4.57;;;2.07;;
2187;SDS011;1100;52.014;8.540;2024-03-08T01:30:07;6.13;;;2.13;;
2187;SDS011;1100;52.014;8.540;2024-03-08T01:32:34;4.68;;;1.80;;
2187;SDS011;1100;52.014;8.540;2024-03-08T01:34:59;4.93;;;2.10;;
2187;SDS011;1100;52.014;8.540;2024-03-08T01:37:25;6.27;;;2.20;;
2187;SDS011;1100;52.014;8.540;2024-03-08T01:39:50;7.67;;;1.33;;
2187;SDS011;1100;52.014;8.540;2024-03-08T01:42:15;5.70;;;2.27;;
2187;SDS011;1100;52.014;8.540;2024-03-08T01:44:42;5.00;;;1.38;;
2187;SDS011;1100;52.014;8.540;2024-03-08T01:47:08;7.88;;;2.53;;
2187;SDS011;1100;52.014;8.540;2024-03-08T01:49:36;4.18;;;1.67;;
2187;SDS011;1100;52.014;8.540;2024-03-08T01:52:02;6.32;;;2.53;;
2187;SDS011;1100;52.014;8.540;2024-03-08T01:54:27;5.33;;;2.10;;
2187;SDS011;1100;52.014;8.540;2024-03-08T01:56:53;7.40;;;2.73;;
2187;SDS011;1100;52.014;8.540;2024-03-08T01:59:18;3.63;;;1.73;;
2187;SDS011;1100;52.014;8.540;2024-03-08T02:01:44;5.63;;;3.15;;
2187;SDS011;1100;52.014;8.540;2024-03-08T02:04:09;3.43;;;1.77;;
2187;SDS011;1100;52.014;8.540;2024-03-08T02:06:36;5.47;;;1.83;;
2187;SDS011;1100;52.014;8.540;2024-03-08T02:09:02;6.97;;;2.67;;
2187;SDS011;1100;52.014;8.540;2024-03-08T02:11:30;8.23;;;3.38;;
2187;SDS011;1100;52.014;8.540;2024-03-08T02:13:57;7.30;;;2.40;;
2187;SDS011;1100;52.014;8.540;2024-03-08T02:16:23;4.30;;;2.58;;
2187;SDS011;1100;52.014;8.540;2024-03-08T02:18:48;5.50;;;2.30;;
2187;SDS011;1100;52.014;8.540;2024-03-08T02:21:13;4.57;;;2.10;;
2187;SDS011;1100;52.014;8.540;2024-03-08T02:23:43;8.57;;;2.53;;
2187;SDS011;1100;52.014;8.540;2024-03-08T02:26:09;5.53;;;2.20;;
2187;SDS011;1100;52.014;8.540;2024-03-08T02:28:34;4.47;;;2.20;;
2187;SDS011;1100;52.014;8.540;2024-03-08T02:30:59;5.07;;;2.60;;
2187;SDS011;1100;52.014;8.540;2024-03-08T02:33:26;8.53;;;3.00;;
2187;SDS011;1100;52.014;8.540;2024-03-08T02:35:52;6.32;;;2.75;;
2187;SDS011;1100;52.014;8.540;2024-03-08T02:38:21;6.40;;;2.10;;
2187;SDS011;1100;52.014;8.540;2024-03-08T02:40:48;4.28;;;1.95;;
2187;SDS011;1100;52.014;8.540;2024-03-08T02:43:16;4.63;;;2.05;;
2187;SDS011;1100;52.014;8.540;2024-03-08T02:45:45;5.63;;;2.22;;
2187;SDS011;1100;52.014;8.540;2024-03-08T02:48:11;3.83;;;1.63;;
2187;SDS011;1100;52.014;8.540;2024-03-08T02:50:37;5.25;;;2.83;;
2187;SDS011;1100;52.014;8.540;2024-03-08T02:53:05;11.48;;;4.00;;
2187;SDS011;1100;52.014;8.540;2024-03-08T02:55:32;7.28;;;3.80;;
2187;SDS011;1100;52.014;8.540;2024-03-08T02:58:00;5.13;;;2.35;;
2187;SDS011;1100;52.014;8.540;2024-03-08T03:00:29;4.67;;;2.63;;
2187;SDS011;1100;52.014;8.540;2024-03-08T03:02:59;5.93;;;3.10;;
2187;SDS011;1100;52.014;8.540;2024-03-08T03:05:24;5.30;;;2.53;;
2187;SDS011;1100;52.014;8.540;2024-03-08T03:07:50;6.50;;;2.63;;
2187;SDS011;1100;52.014;8.540;2024-03-08T03:10:16;4.22;;;1.58;;
2187;SDS011;1100;52.014;8.540;2024-03-08T03:12:42;3.67;;;1.10;;
2187;SDS011;1100;52.014;8.540;2024-03-08T03:15:08;4.65;;;2.13;;
2187;SDS011;1100;52.014;8.540;2024-03-08T03:17:34;5.57;;;2.27;;
2187;SDS011;1100;52.014;8.540;2024-03-08T03:19:59;9.10;;;2.50;;
2187;SDS011;1100;52.014;8.540;2024-03-08T03:22:27;5.15;;;1.75;;
2187;SDS011;1100;52.014;8.540;2024-03-08T03:24:55;6.70;;;2.70;;
2187;SDS011;1100;52.014;8.540;2024-03-08T03:27:23;8.02;;;2.20;;
2187;SDS011;1100;52.014;8.540;2024-03-08T03:29:49;4.82;;;1.80;;
2187;SDS011;1100;52.014;8.540;2024-03-08T03:32:16;6.10;;;3.13;;
2187;SDS011;1100;52.014;8.540;2024-03-08T03:34:43;4.53;;;2.10;;
2187;SDS011;1100;52.014;8.540;2024-03-08T03:37:09;3.03;;;1.83;;
2187;SDS011;1100;52.014;8.540;2024-03-08T03:39:37;3.30;;;1.75;;
2187;SDS011;1100;52.014;8.540;2024-03-08T03:42:13;5.93;;;2.20;;
2187;SDS011;1100;52.014;8.540;2024-03-08T03:44:46;3.28;;;1.70;;
2187;SDS011;1100;52.014;8.540;2024-03-08T03:47:12;4.35;;;2.03;;
2187;SDS011;1100;52.014;8.540;2024-03-08T03:49:37;4.57;;;1.23;;
2187;SDS011;1100;52.014;8.540;2024-03-08T03:52:03;3.87;;;2.07;;
2187;SDS011;1100;52.014;8.540;2024-03-08T03:54:29;5.00;;;1.65;;
2187;SDS011;1100;52.014;8.540;2024-03-08T03:56:55;4.80;;;2.17;;
2187;SDS011;1100;52.014;8.540;2024-03-08T03:59:21;4.65;;;1.92;;
2187;SDS011;1100;52.014;8.540;2024-03-08T04:01:46;5.40;;;3.30;;
2187;SDS011;1100;52.014;8.540;2024-03-08T04:04:11;4.60;;;2.07;;
2187;SDS011;1100;52.014;8.540;2024-03-08T04:06:37;3.47;;;1.90;;
2187;SDS011;1100;52.014;8.540;2024-03-08T04:09:02;5.97;;;2.80;;
2187;SDS011;1100;52.014;8.540;2024-03-08T04:11:29;8.43;;;2.47;;
2187;SDS011;1100;52.014;8.540;2024-03-08T04:13:55;5.55;;;2.72;;
2187;SDS011;1100;52.014;8.540;2024-03-08T04:16:21;5.57;;;2.53;;
2187;SDS011;1100;52.014;8.540;2024-03-08T04:18:49;5.25;;;3.03;;
2187;SDS011;1100;52.014;8.540;2024-03-08T04:21:14;6.80;;;3.17;;
2187;SDS011;1100;52.014;8.540;2024-03-08T04:23:40;4.25;;;2.13;;
2187;SDS011;1100;52.014;8.540;2024-03-08T04:26:09;3.80;;;1.83;;
2187;SDS011;1100;52.014;8.540;2024-03-08T04:28:34;3.90;;;1.83;;
2187;SDS011;1100;52.014;8.540;2024-03-08T04:30:59;6.73;;;2.77;;
2187;SDS011;1100;52.014;8.540;2024-03-08T04:33:28;8.10;;;3.35;;
2187;SDS011;1100;52.014;8.540;2024-03-08T04:35:53;5.63;;;1.97;;
2187;SDS011;1100;52.014;8.540;2024-03-08T04:38:18;6.27;;;2.63;;
2187;SDS011;1100;52.014;8.540;2024-03-08T04:40:44;5.20;;;2.33;;
2187;SDS011;1100;52.014;8.540;2024-03-08T04:43:09;5.33;;;2.60;;
2187;SDS011;1100;52.014;8.540;2024-03-08T04:45:35;5.63;;;1.70;;
2187;SDS011;1100;52.014;8.540;2024-03-08T04:48:01;4.95;;;2.30;;
2187;SDS011;1100;52.014;8.540;2024-03-08T04:50:26;6.97;;;3.03;;
2187;SDS011;1100;52.014;8.540;2024-03-08T04:52:54;5.07;;;2.22;;
2187;SDS011;1100;52.014;8.540;2024-03-08T04:55:19;6.20;;;2.58;;
2187;SDS011;1100;52.014;8.540;2024-03-08T04:57:46;3.43;;;1.50;;
2187;SDS011;1100;52.014;8.540;2024-03-08T05:00:12;3.85;;;1.80;;
2187;SDS011;1100;52.014;8.540;2024-03-08T05:02:40;5.22;;;2.20;;
2187;SDS011;1100;52.014;8.540;2024-03-08T05:05:06;4.63;;;1.25;;
2187;SDS011;1100;52.014;8.540;2024-03-08T05:07:34;4.95;;;2.10;;
2187;SDS011;1100;52.014;8.540;2024-03-08T05:10:00;8.87;;;2.57;;
2187;SDS011;1100;52.014;8.540;2024-03-08T05:12:27;7.43;;;2.80;;
2187;SDS011;1100;52.014;8.540;2024-03-08T05:14:52;3.43;;;1.40;;
2187;SDS011;1100;52.014;8.540;2024-03-08T05:17:18;4.45;;;2.25;;
2187;SDS011;1100;52.014;8.540;2024-03-08T05:19:44;5.33;;;2.30;;
2187;SDS011;1100;52.014;8.540;2024-03-08T05:22:09;4.10;;;1.70;;
2187;SDS011;1100;52.014;8.540;2024-03-08T05:24:34;6.83;;;2.87;;
2187;SDS011;1100;52.014;8.540;2024-03-08T05:27:00;4.03;;;2.37;;
2187;SDS011;1100;52.014;8.540;2024-03-08T05:29:27;5.40;;;1.27;;
2187;SDS011;1100;52.014;8.540;2024-03-08T05:31:53;5.93;;;2.47;;
2187;SDS011;1100;52.014;8.540;2024-03-08T05:34:19;8.07;;;2.60;;
2187;SDS011;1100;52.014;8.540;2024-03-08T05:36:44;7.93;;;3.37;;
2187;SDS011;1100;52.014;8.540;2024-03-08T05:39:14;5.90;;;2.10;;
2187;SDS011;1100;52.014;8.540;2024-03-08T05:41:41;3.92;;;2.15;;
2187;SDS011;1100;52.014;8.540;2024-03-08T05:44:07;5.18;;;2.03;;
2187;SDS011;1100;52.014;8.540;2024-03-08T05:46:36;5.30;;;2.72;;
2187;SDS011;1100;52.014;8.540;2024-03-08T05:49:02;8.67;;;1.83;;
2187;SDS011;1100;52.014;8.540;2024-03-08T05:51:32;11.50;;;3.08;;
2187;SDS011;1100;52.014;8.540;2024-03-08T05:53:59;5.68;;;3.00;;
2187;SDS011;1100;52.014;8.540;2024-03-08T05:56:26;6.97;;;2.85;;
2187;SDS011;1100;52.014;8.540;2024-03-08T05:58:51;4.33;;;2.90;;
2187;SDS011;1100;52.014;8.540;2024-03-08T06:01:16;7.87;;;2.53;;
2187;SDS011;1100;52.014;8.540;2024-03-08T06:03:42;8.57;;;3.93;;
2187;SDS011;1100;52.014;8.540;2024-03-08T06:06:13;7.78;;;2.75;;
2187;SDS011;1100;52.014;8.540;2024-03-08T06:08:39;11.32;;;3.17;;
2187;SDS011;1100;52.014;8.540;2024-03-08T06:11:05;5.67;;;3.07;;
2187;SDS011;1100;52.014;8.540;2024-03-08T06:13:31;6.10;;;2.33;;
2187;SDS011;1100;52.014;8.540;2024-03-08T06:15:57;5.28;;;3.03;;
2187;SDS011;1100;52.014;8.540;2024-03-08T06:18:22;8.40;;;3.50;;
2187;SDS011;1100;52.014;8.540;2024-03-08T06:20:48;8.47;;;2.10;;
2187;SDS011;1100;52.014;8.540;2024-03-08T06:23:13;7.77;;;3.37;;
2187;SDS011;1100;52.014;8.540;2024-03-08T06:25:43;8.52;;;3.53;;
2187;SDS011;1100;52.014;8.540;2024-03-08T06:28:11;5.10;;;2.67;;
2187;SDS011;1100;52.014;8.540;2024-03-08T06:30:36;7.07;;;3.67;;
2187;SDS011;1100;52.014;8.540;2024-03-08T06:33:02;7.53;;;3.47;;
2187;SDS011;1100;52.014;8.540;2024-03-08T06:35:27;5.70;;;1.93;;
2187;SDS011;1100;52.014;8.540;2024-03-08T06:37:53;11.48;;;2.88;;
2187;SDS011;1100;52.014;8.540;2024-03-08T06:40:18;6.40;;;3.40;;
2187;SDS011;1100;52.014;8.540;2024-03-08T06:42:43;5.53;;;2.67;;
2187;SDS011;1100;52.014;8.540;2024-03-08T06:45:09;7.87;;;2.30;;
2187;SDS011;1100;52.014;8.540;2024-03-08T06:47:35;7.65;;;3.75;;
2187;SDS011;1100;52.014;8.540;2024-03-08T06:50:01;5.13;;;3.13;;
2187;SDS011;1100;52.014;8.540;2024-03-08T06:52:27;4.73;;;2.67;;
2187;SDS011;1100;52.014;8.540;2024-03-08T06:54:52;8.00;;;4.07;;
2187;SDS011;1100;52.014;8.540;2024-03-08T06:57:18;9.87;;;3.93;;
2187;SDS011;1100;52.014;8.540;2024-03-08T06:59:46;7.68;;;4.18;;
2187;SDS011;1100;52.014;8.540;2024-03-08T07:02:12;7.40;;;3.57;;
2187;SDS011;1100;52.014;8.540;2024-03-08T07:04:38;5.38;;;2.67;;
2187;SDS011;1100;52.014;8.540;2024-03-08T07:07:04;14.27;;;3.43;;
2187;SDS011;1100;52.014;8.540;2024-03-08T07:09:30;8.05;;;3.72;;
2187;SDS011;1100;52.014;8.540;2024-03-08T07:11:55;4.90;;;2.40;;
2187;SDS011;1100;52.014;8.540;2024-03-08T07:14:23;6.70;;;2.57;;
2187;SDS011;1100;52.014;8.540;2024-03-08T07:16:49;9.80;;;5.20;;
2187;SDS011;1100;52.014;8.540;2024-03-08T07:19:16;9.73;;;4.50;;
2187;SDS011;1100;52.014;8.540;2024-03-08T07:21:42;8.40;;;4.10;;
2187;SDS011;1100;52.014;8.540;2024-03-08T07:24:08;7.53;;;3.40;;
2187;SDS011;1100;52.014;8.540;2024-03-08T07:26:43;11.10;;;5.43;;
2187;SDS011;1100;52.014;8.540;2024-03-08T07:29:08;8.80;;;3.50;;
2187;SDS011;1100;52.014;8.540;2024-03-08T07:31:34;9.17;;;5.07;;
2187;SDS011;1100;52.014;8.540;2024-03-08T07:34:02;9.38;;;3.08;;
2187;SDS011;1100;52.014;8.540;2024-03-08T07:36:28;5.70;;;3.53;;
2187;SDS011;1100;52.014;8.540;2024-03-08T07:38:53;6.88;;;3.83;;
2187;SDS011;1100;52.014;8.540;2024-03-08T07:41:19;7.63;;;3.87;;
2187;SDS011;1100;52.014;8.540;2024-03-08T07:43:45;12.00;;;4.53;;
2187;SDS011;1100;52.014;8.540;2024-03-08T07:46:10;8.32;;;3.58;;
2187;SDS011;1100;52.014;8.540;2024-03-08T07:48:36;8.60;;;3.23;;
2187;SDS011;1100;52.014;8.540;2024-03-08T07:51:05;12.02;;;4.53;;
2187;SDS011;1100;52.014;8.540;2024-03-08T07:53:30;17.97;;;4.73;;
2187;SDS011;1100;52.014;8.540;2024-03-08T07:55:56;8.07;;;4.57;;
2187;SDS011;1100;52.014;8.540;2024-03-08T07:58:21;9.93;;;4.50;;
2187;SDS011;1100;52.014;8.540;2024-03-08T08:00:46;7.60;;;3.43;;
2187;SDS011;1100;52.014;8.540;2024-03-08T08:03:12;9.57;;;4.55;;
2187;SDS011;1100;52.014;8.540;2024-03-08T08:05:37;8.37;;;2.90;;
2187;SDS011;1100;52.014;8.540;2024-03-08T08:08:04;6.93;;;3.55;;
2187;SDS011;1100;52.014;8.540;2024-03-08T08:10:31;9.18;;;3.58;;
2187;SDS011;1100;52.014;8.540;2024-03-08T08:13:00;11.15;;;4.32;;
2187;SDS011;1100;52.014;8.540;2024-03-08T08:15:25;6.60;;;3.33;;
2187;SDS011;1100;52.014;8.540;2024-03-08T08:17:50;10.23;;;4.67;;
2187;SDS011;1100;52.014;8.540;2024-03-08T08:20:17;9.70;;;4.10;;
2187;SDS011;1100;52.014;8.540;2024-03-08T08:22:43;10.77;;;3.90;;
2187;SDS011;1100;52.014;8.540;2024-03-08T08:25:09;12.45;;;5.47;;
2187;SDS011;1100;52.014;8.540;2024-03-08T08:27:38;13.85;;;4.93;;
2187;SDS011;1100;52.014;8.540;2024-03-08T08:30:04;8.30;;;4.10;;
2187;SDS011;1100;52.014;8.540;2024-03-08T08:32:33;8.18;;;3.63;;
2187;SDS011;1100;52.014;8.540;2024-03-08T08:35:01;9.10;;;3.93;;
2187;SDS011;1100;52.014;8.540;2024-03-08T08:37:31;12.10;;;4.63;;
2187;SDS011;1100;52.014;8.540;2024-03-08T08:39:57;13.35;;;5.30;;
2187;SDS011;1100;52.014;8.540;2024-03-08T08:42:22;9.63;;;4.68;;
2187;SDS011;1100;52.014;8.540;2024-03-08T08:44:48;10.20;;;4.70;;
2187;SDS011;1100;52.014;8.540;2024-03-08T08:47:15;8.48;;;3.60;;
2187;SDS011;1100;52.014;8.540;2024-03-08T08:49:43;9.18;;;4.35;;
2187;SDS011;1100;52.014;8.540;2024-03-08T08:52:12;12.02;;;3.80;;
2187;SDS011;1100;52.014;8.540;2024-03-08T08:54:37;7.90;;;3.73;;
2187;SDS011;1100;52.014;8.540;2024-03-08T08:57:02;8.20;;;3.57;;
2187;SDS011;1100;52.014;8.540;2024-03-08T08:59:32;9.48;;;4.68;;
2187;SDS011;1100;52.014;8.540;2024-03-08T09:02:01;9.23;;;4.65;;
2187;SDS011;1100;52.014;8.540;2024-03-08T09:04:28;10.52;;;5.05;;
2187;SDS011;1100;52.014;8.540;2024-03-08T09:06:54;11.50;;;5.10;;
2187;SDS011;1100;52.014;8.540;2024-03-08T09:09:19;8.37;;;4.30;;
2187;SDS011;1100;52.014;8.540;2024-03-08T09:11:47;12.63;;;5.80;;
2187;SDS011;1100;52.014;8.540;2024-03-08T09:14:12;11.50;;;4.47;;
2187;SDS011;1100;52.014;8.540;2024-03-08T09:16:37;11.90;;;5.20;;
2187;SDS011;1100;52.014;8.540;2024-03-08T09:19:03;9.48;;;4.35;;
2187;SDS011;1100;52.014;8.540;2024-03-08T09:21:28;11.47;;;5.60;;
2187;SDS011;1100;52.014;8.540;2024-03-08T09:23:53;9.83;;;4.93;;
2187;SDS011;1100;52.014;8.540;2024-03-08T09:26:19;10.10;;;5.13;;
2187;SDS011;1100;52.014;8.540;2024-03-08T09:28:44;11.07;;;4.67;;
2187;SDS011;1100;52.014;8.540;2024-03-08T09:31:10;9.93;;;4.10;;
2187;SDS011;1100;52.014;8.540;2024-03-08T09:33:36;9.73;;;3.60;;
2187;SDS011;1100;52.014;8.540;2024-03-08T09:36:01;10.37;;;5.00;;
2187;SDS011;1100;52.014;8.540;2024-03-08T09:38:28;8.68;;;4.10;;
2187;SDS011;1100;52.014;8.540;2024-03-08T09:40:54;9.97;;;5.10;;
2187;SDS011;1100;52.014;8.540;2024-03-08T09:43:21;15.30;;;5.25;;
2187;SDS011;1100;52.014;8.540;2024-03-08T09:45:49;10.80;;;5.03;;
2187;SDS011;1100;52.014;8.540;2024-03-08T09:48:16;8.90;;;4.10;;
2187;SDS011;1100;52.014;8.540;2024-03-08T09:50:44;10.50;;;4.50;;
2187;SDS011;1100;52.014;8.540;2024-03-08T09:53:11;8.25;;;3.80;;
2187;SDS011;1100;52.014;8.540;2024-03-08T09:55:37;10.70;;;5.25;;
2187;SDS011;1100;52.014;8.540;2024-03-08T09:58:06;11.27;;;4.85;;
2187;SDS011;1100;52.014;8.540;2024-03-08T10:00:52;12.88;;;5.15;;
2187;SDS011;1100;52.014;8.540;2024-03-08T10:03:17;10.40;;;4.60;;
2187;SDS011;1100;52.014;8.540;2024-03-08T10:05:44;8.03;;;3.90;;
2187;SDS011;1100;52.014;8.540;2024-03-08T10:08:10;11.60;;;4.13;;
2187;SDS011;1100;52.014;8.540;2024-03-08T10:10:36;8.57;;;3.60;;
2187;SDS011;1100;52.014;8.540;2024-03-08T10:13:05;12.68;;;5.47;;
2187;SDS011;1100;52.014;8.540;2024-03-08T10:15:34;10.30;;;4.45;;
2187;SDS011;1100;52.014;8.540;2024-03-08T10:17:59;9.63;;;4.50;;
2187;SDS011;1100;52.014;8.540;2024-03-08T10:20:27;10.88;;;4.97;;
2187;SDS011;1100;52.014;8.540;2024-03-08T10:22:58;12.60;;;4.72;;
2187;SDS011;1100;52.014;8.540;2024-03-08T10:25:24;11.50;;;4.35;;
2187;SDS011;1100;52.014;8.540;2024-03-08T10:27:50;10.40;;;5.30;;
2187;SDS011;1100;52.014;8.540;2024-03-08T10:30:16;10.50;;;4.97;;
2187;SDS011;1100;52.014;8.540;2024-03-08T10:32:45;10.33;;;5.23;;
2187;SDS011;1100;52.014;8.540;2024-03-08T10:35:11;9.52;;;3.80;;
2187;SDS011;1100;52.014;8.540;2024-03-08T10:37:42;8.07;;;3.85;;
2187;SDS011;1100;52.014;8.540;2024-03-08T10:40:15;9.18;;;4.15;;
2187;SDS011;1100;52.014;8.540;2024-03-08T10:43:00;7.27;;;3.77;;
2187;SDS011;1100;52.014;8.540;2024-03-08T10:45:38;9.48;;;3.70;;
2187;SDS011;1100;52.014;8.540;2024-03-08T10:48:18;7.82;;;3.33;;
2187;SDS011;1100;52.014;8.540;2024-03-08T10:50:48;9.65;;;4.28;;
2187;SDS011;1100;52.014;8.540;2024-03-08T10:53:15;10.07;;;3.83;;
2187;SDS011;1100;52.014;8.540;2024-03-08T10:55:43;8.93;;;4.00;;
2187;SDS011;1100;52.014;8.540;2024-03-08T10:58:09;10.85;;;3.92;;
2187;SDS011;1100;52.014;8.540;2024-03-08T11:00:37;7.23;;;3.30;;
2187;SDS011;1100;52.014;8.540;2024-03-08T11:03:06;7.70;;;3.35;;
2187;SDS011;1100;52.014;8.540;2024-03-08T11:05:41;7.80;;;3.58;;
2187;SDS011;1100;52.014;8.540;2024-03-08T11:10:50;9.50;;;4.07;;
2187;SDS011;1100;52.014;8.540;2024-03-08T11:13:34;9.70;;;3.97;;
2187;SDS011;1100;52.014;8.540;2024-03-08T11:16:09;9.95;;;4.72;;
2187;SDS011;1100;52.014;8.540;2024-03-08T11:18:35;10.52;;;4.47;;
2187;SDS011;1100;52.014;8.540;2024-03-08T11:21:10;13.70;;;4.97;;
2187;SDS011;1100;52.014;8.540;2024-03-08T11:23:37;9.03;;;4.50;;
2187;SDS011;1100;52.014;8.540;2024-03-08T11:26:03;10.25;;;4.18;;
2187;SDS011;1100;52.014;8.540;2024-03-08T11:28:32;9.00;;;4.00;;
2187;SDS011;1100;52.014;8.540;2024-03-08T11:33:29;9.68;;;4.68;;
2187;SDS011;1100;52.014;8.540;2024-03-08T11:36:11;9.73;;;4.43;;
2187;SDS011;1100;52.014;8.540;2024-03-08T11:38:41;10.80;;;4.15;;
2187;SDS011;1100;52.014;8.540;2024-03-08T11:41:08;10.60;;;4.63;;
2187;SDS011;1100;52.014;8.540;2024-03-08T11:43:37;11.20;;;3.92;;
2187;SDS011;1100;52.014;8.540;2024-03-08T11:46:08;12.25;;;4.55;;
2187;SDS011;1100;52.014;8.540;2024-03-08T11:48:34;11.30;;;4.78;;
2187;SDS011;1100;52.014;8.540;2024-03-08T11:51:01;11.82;;;4.80;;
2187;SDS011;1100;52.014;8.540;2024-03-08T11:53:26;8.07;;;3.80;;
2187;SDS011;1100;52.014;8.540;2024-03-08T11:55:52;10.75;;;5.15;;
2187;SDS011;1100;52.014;8.540;2024-03-08T11:58:17;10.70;;;4.73;;
2187;SDS011;1100;52.014;8.540;2024-03-08T12:00:43;11.83;;;5.00;;
2187;SDS011;1100;52.014;8.540;2024-03-08T12:03:11;9.13;;;4.18;;
2187;SDS011;1100;52.014;8.540;2024-03-08T12:05:37;10.13;;;3.78;;
2187;SDS011;1100;52.014;8.540;2024-03-08T12:08:03;10.40;;;4.80;;
2187;SDS011;1100;52.014;8.540;2024-03-08T12:10:30;10.47;;;4.20;;
2187;SDS011;1100;52.014;8.540;2024-03-08T12:12:56;10.70;;;4.85;;
2187;SDS011;1100;52.014;8.540;2024-03-08T12:15:24;12.53;;;4.67;;
2187;SDS011;1100;52.014;8.540;2024-03-08T12:17:52;10.55;;;4.80;;
2187;SDS011;1100;52.014;8.540;2024-03-08T12:22:47;11.73;;;4.20;;
2187;SDS011;1100;52.014;8.540;2024-03-08T12:25:14;9.77;;;3.92;;
2187;SDS011;1100;52.014;8.540;2024-03-08T12:27:40;9.33;;;4.47;;
2187;SDS011;1100;52.014;8.540;2024-03-08T12:30:19;8.40;;;4.10;;
2187;SDS011;1100;52.014;8.540;2024-03-08T12:35:22;9.50;;;4.03;;
2187;SDS011;1100;52.014;8.540;2024-03-08T12:37:50;11.07;;;3.90;;
2187;SDS011;1100;52.014;8.540;2024-03-08T12:40:18;8.18;;;3.08;;
2187;SDS011;1100;52.014;8.540;2024-03-08T12:42:44;7.38;;;3.88;;
2187;SDS011;1100;52.014;8.540;2024-03-08T12:45:14;9.95;;;3.95;;
2187;SDS011;1100;52.014;8.540;2024-03-08T12:47:39;7.43;;;3.47;;
2187;SDS011;1100;52.014;8.540;2024-03-08T12:50:07;7.45;;;3.33;;
2187;SDS011;1100;52.014;8.540;2024-03-08T12:52:33;8.00;;;4.30;;
2187;SDS011;1100;52.014;8.540;2024-03-08T12:54:59;8.40;;;3.47;;
2187;SDS011;1100;52.014;8.540;2024-03-08T12:57:28;8.60;;;3.92;;
2187;SDS011;1100;52.014;8.540;2024-03-08T12:59:54;8.00;;;4.17;;
2187;SDS011;1100;52.014;8.540;2024-03-08T13:02:19;6.60;;;3.22;;
2187;SDS011;1100;52.014;8.540;2024-03-08T13:04:45;8.90;;;3.50;;
2187;SDS011;1100;52.014;8.540;2024-03-08T13:07:18;6.78;;;3.30;;
2187;SDS011;1100;52.014;8.540;2024-03-08T13:09:44;9.17;;;4.13;;
2187;SDS011;1100;52.014;8.540;2024-03-08T13:12:09;9.70;;;4.53;;
2187;SDS011;1100;52.014;8.540;2024-03-08T13:14:35;7.53;;;3.42;;
2187;SDS011;1100;52.014;8.540;2024-03-08T13:17:01;8.70;;;4.18;;
2187;SDS011;1100;52.014;8.540;2024-03-08T13:19:27;8.87;;;4.03;;
2187;SDS011;1100;52.014;8.540;2024-03-08T13:21:53;8.88;;;3.90;;
2187;SDS011;1100;52.014;8.540;2024-03-08T13:24:18;11.13;;;3.70;;
2187;SDS011;1100;52.014;8.540;2024-03-08T13:26:43;12.23;;;4.43;;
2187;SDS011;1100;52.014;8.540;2024-03-08T13:29:10;10.40;;;4.93;;
2187;SDS011;1100;52.014;8.540;2024-03-08T13:31:35;10.17;;;4.33;;
2187;SDS011;1100;52.014;8.540;2024-03-08T13:34:01;8.57;;;4.00;;
2187;SDS011;1100;52.014;8.540;2024-03-08T13:36:26;10.10;;;3.60;;
2187;SDS011;1100;52.014;8.540;2024-03-08T13:39:00;11.40;;;5.10;;
2187;SDS011;1100;52.014;8.540;2024-03-08T13:41:25;11.60;;;5.53;;
2187;SDS011;1100;52.014;8.540;2024-03-08T13:43:52;9.63;;;4.93;;
2187;SDS011;1100;52.014;8.540;2024-03-08T13:46:18;14.68;;;4.53;;
2187;SDS011;1100;52.014;8.540;2024-03-08T13:48:43;10.00;;;4.97;;
2187;SDS011;1100;52.014;8.540;2024-03-08T13:51:09;9.83;;;4.10;;
2187;SDS011;1100;52.014;8.540;2024-03-08T13:53:40;7.75;;;3.85;;
2187;SDS011;1100;52.014;8.540;2024-03-08T13:56:05;9.93;;;4.50;;
2187;SDS011;1100;52.014;8.540;2024-03-08T13:58:31;10.27;;;4.70;;
2187;SDS011;1100;52.014;8.540;2024-03-08T14:00:56;13.23;;;4.00;;
2187;SDS011;1100;52.014;8.540;2024-03-08T14:03:22;10.20;;;4.40;;
2187;SDS011;1100;52.014;8.540;2024-03-08T14:05:49;11.52;;;4.25;;
2187;SDS011;1100;52.014;8.540;2024-03-08T14:08:14;11.20;;;4.17;;
2187;SDS011;1100;52.014;8.540;2024-03-08T14:10:41;10.35;;;3.92;;
2187;SDS011;1100;52.014;8.540;2024-03-08T14:13:07;10.02;;;4.22;;
2187;SDS011;1100;52.014;8.540;2024-03-08T14:15:33;11.73;;;5.00;;
2187;SDS011;1100;52.014;8.540;2024-03-08T14:18:06;8.90;;;4.20;;
2187;SDS011;1100;52.014;8.540;2024-03-08T14:20:32;11.13;;;4.57;;
2187;SDS011;1100;52.014;8.540;2024-03-08T14:22:57;9.90;;;4.73;;
2187;SDS011;1100;52.014;8.540;2024-03-08T14:25:23;12.33;;;5.20;;
2187;SDS011;1100;52.014;8.540;2024-03-08T14:27:53;8.32;;;3.92;;
2187;SDS011;1100;52.014;8.540;2024-03-08T14:30:19;9.80;;;4.40;;
2187;SDS011;1100;52.014;8.540;2024-03-08T14:33:00;10.00;;;3.55;;
2187;SDS011;1100;52.014;8.540;2024-03-08T14:35:26;10.73;;;3.83;;
2187;SDS011;1100;52.014;8.540;2024-03-08T14:37:52;10.38;;;4.07;;
2187;SDS011;1100;52.014;8.540;2024-03-08T14:40:18;10.17;;;4.27;;
2187;SDS011;1100;52.014;8.540;2024-03-08T14:42:48;11.05;;;4.72;;
2187;SDS011;1100;52.014;8.540;2024-03-08T14:45:14;11.30;;;4.57;;
2187;SDS011;1100;52.014;8.540;2024-03-08T14:47:40;8.40;;;3.60;;
2187;SDS011;1100;52.014;8.540;2024-03-08T14:50:05;9.55;;;4.03;;
2187;SDS011;1100;52.014;8.540;2024-03-08T14:52:32;9.93;;;3.90;;
2187;SDS011;1100;52.014;8.540;2024-03-08T14:54:57;10.25;;;4.18;;
2187;SDS011;1100;52.014;8.540;2024-03-08T14:57:23;8.97;;;4.20;;
2187;SDS011;1100;52.014;8.540;2024-03-08T14:59:48;10.63;;;4.47;;
2187;SDS011;1100;52.014;8.540;2024-03-08T15:02:14;11.87;;;4.50;;
2187;SDS011;1100;52.014;8.540;2024-03-08T15:04:39;10.33;;;4.50;;
2187;SDS011;1100;52.014;8.540;2024-03-08T15:07:06;12.43;;;4.63;;
2187;SDS011;1100;52.014;8.540;2024-03-08T15:09:34;9.20;;;4.37;;
2187;SDS011;1100;52.014;8.540;2024-03-08T15:12:04;9.05;;;4.07;;
2187;SDS011;1100;52.014;8.540;2024-03-08T15:14:31;10.23;;;5.00;;
2187;SDS011;1100;52.014;8.540;2024-03-08T15:16:58;10.82;;;4.72;;
2187;SDS011;1100;52.014;8.540;2024-03-08T15:19:23;9.30;;;4.63;;